Flight Track Log - Related Links

Times and Time Zones

All times are in EDT time to prevent confusion due to time zone crossing. See the CTL78 flight status page for this flight to view local times or setup timezone preferences in your user account.

Time Position Orientation Groundspeed Altitude Reporting Facility
EDT Latitude Longitude Course Direction KTS MPH feet Rate Location/Type
Fri 03:53:21 PM 42.6653 -83.4069 64° Northeast 113 130 1,400  Level Cleveland Center
Fri 03:54:04 PM 42.6742 -83.3819 64° Northeast 128 147 2,000 837 Climbing Cleveland Center
Fri 03:56:00 PM 42.7441 -83.3964 14° North  Level FlightAware Approximate
Fri 04:03:00 PM 42.9690 -83.4425 321° Northwest  Level FlightAware Approximate
Fri 04:04:00 PM 42.9964 -83.4727 321° Northwest  Level FlightAware Approximate
Fri 04:05:00 PM 43.0238 -83.5029 321° Northwest  Level FlightAware Approximate
Fri 04:06:00 PM 43.0512 -83.5331 321° Northwest  Level FlightAware Approximate
Fri 04:07:00 PM 43.0785 -83.5634 321° Northwest  Level FlightAware Approximate
Fri 04:08:00 PM 43.1059 -83.5937 321° Northwest  Level FlightAware Approximate
Fri 04:09:00 PM 43.1332 -83.6240 321° Northwest  Level FlightAware Approximate
Fri 04:10:00 PM 43.1606 -83.6543 321° Northwest  Level FlightAware Approximate
Fri 04:11:00 PM 43.1879 -83.6847 321° Northwest  Level FlightAware Approximate
Fri 04:12:00 PM 43.2153 -83.7151 321° Northwest  Level FlightAware Approximate
Fri 04:13:00 PM 43.2416 -83.7471 318° Northwest  Level FlightAware Approximate
Fri 04:14:00 PM 43.2679 -83.7792 318° Northwest  Level FlightAware Approximate
Fri 04:15:00 PM 43.2942 -83.8113 318° Northwest  Level FlightAware Approximate
Fri 04:16:00 PM 43.3205 -83.8434 318° Northwest  Level FlightAware Approximate
Fri 04:17:00 PM 43.3467 -83.8756 318° Northwest  Level FlightAware Approximate
Fri 04:18:00 PM 43.3736 -83.9069 324° Northwest  Level FlightAware Approximate
Fri 04:19:00 PM 43.4020 -83.9353 324° Northwest  Level FlightAware Approximate
Fri 04:20:00 PM 43.4305 -83.9637 324° Northwest  Level FlightAware Approximate
Fri 04:21:00 PM 43.4590 -83.9922 324° Northwest  Level FlightAware Approximate
Fri 04:22:00 PM 43.4874 -84.0207 324° Northwest  Level FlightAware Approximate
Fri 04:23:00 PM 43.5111 -84.0556 305° West  Level FlightAware Approximate
Fri 04:24:00 PM 43.5167 -84.0667 305° West  Level FlightAware Approximate
Fri 04:25:00 PM 43.5329 -84.0796 305° West  Level Estimated
Fri 04:26:00 PM 43.5329 -84.0796 305° West  Level Estimated

Login

Don't have an account? Register now (free) for customized features, flight alerts, and more!